Time;durP1;ratioP1;P1;durP2;ratioP2;P2;SDS_P1;SDS_P2;PMS_P1;PMS_P2;Temp;Humidity;BMP_temperature;BMP_pressure;BME280_temperature;BME280_humidity;BME280_pressure;Samples;Min_cycle;Max_cycle;Signal;HPM_P1;HPM_P2
2022/07/30 00:00:47;;;;;;;10.02;2.30;;;;;;;50.31;15.79;100719.31;5076846;28;20490;-62
2022/07/30 00:03:14;;;;;;;11.52;2.40;;;;;;;45.60;20.69;100720.22;5085628;28;20028;-63
2022/07/30 00:05:41;;;;;;;9.10;2.47;;;;;;;45.88;20.10;100723.38;5084298;28;20070;-62
2022/07/30 00:08:07;;;;;;;7.28;2.10;;;;;;;47.76;18.44;100707.38;5083410;28;20044;-62
2022/07/30 00:10:34;;;;;;;19.13;2.95;;;;;;;49.18;17.22;100712.91;5083649;28;20032;-62
2022/07/30 00:13:01;;;;;;;8.27;2.03;;;;;;;48.95;17.13;100711.50;5082597;28;20467;-63
2022/07/30 00:15:28;;;;;;;5.80;2.00;;;;;;;47.44;17.47;100712.59;5075446;28;20471;-62
2022/07/30 00:17:56;;;;;;;9.18;2.30;;;;;;;46.02;19.07;100705.22;5077160;28;20056;-62
2022/07/30 00:20:22;;;;;;;6.35;2.22;;;;;;;44.99;20.81;100708.94;5074348;28;20056;-63
2022/07/30 00:22:49;;;;;;;6.88;2.38;;;;;;;44.62;20.82;100698.06;5078604;28;20075;-62
2022/07/30 00:25:17;;;;;;;7.85;2.20;;;;;;;42.96;22.64;100698.44;5075154;28;20077;-62
2022/07/30 00:27:44;;;;;;;9.20;2.38;;;;;;;44.28;21.41;100703.31;5081860;28;20055;-63
2022/07/30 00:30:11;;;;;;;8.38;2.30;;;;;;;44.06;21.84;100702.97;5054548;28;20028;-63
2022/07/30 00:32:38;;;;;;;8.07;2.22;;;;;;;43.07;23.44;100703.56;5075816;28;20413;-63
2022/07/30 00:35:05;;;;;;;10.02;2.60;;;;;;;43.23;23.30;100705.94;5078683;28;20033;-63
2022/07/30 00:37:32;;;;;;;9.13;2.47;;;;;;;42.97;23.12;100702.88;5074221;28;20024;-62
2022/07/30 00:39:59;;;;;;;7.88;2.40;;;;;;;42.87;23.14;100704.19;5077134;28;20037;-63
2022/07/30 00:42:37;;;;;;;8.73;2.35;;;;;;;42.98;22.19;100697.94;5080911;28;20043;-62
2022/07/30 00:45:05;;;;;;;17.13;2.88;;;;;;;43.15;22.35;100701.91;5086256;28;20028;-62
2022/07/30 00:47:32;;;;;;;11.10;2.40;;;;;;;42.02;24.44;100700.75;5078389;28;20031;-62
2022/07/30 00:50:02;;;;;;;6.70;2.38;;;;;;;42.24;23.49;100704.16;5074770;28;20451;-62
2022/07/30 00:52:31;;;;;;;7.80;2.30;;;;;;;42.35;23.26;100705.66;5073222;28;20028;-62
2022/07/30 00:54:58;;;;;;;7.32;1.80;;;;;;;43.50;21.79;100693.47;5082502;28;20028;-62
2022/07/30 00:57:27;;;;;;;11.18;2.30;;;;;;;43.47;22.13;100708.78;5079802;28;20062;-62
2022/07/30 00:59:54;;;;;;;12.02;2.95;;;;;;;45.08;20.06;100708.78;5089303;28;20024;-62
2022/07/30 01:02:21;;;;;;;7.45;2.42;;;;;;;43.35;22.05;100707.78;5075180;28;20028;-62
2022/07/30 01:04:49;;;;;;;8.10;2.00;;;;;;;43.07;22.36;100712.16;5078955;28;20454;-62
2022/07/30 01:07:16;;;;;;;8.13;2.13;;;;;;;42.51;21.89;100714.63;5082376;28;20523;-62
2022/07/30 01:09:43;;;;;;;11.30;2.67;;;;;;;41.86;23.60;100701.94;5085183;28;20066;-62
2022/07/30 01:12:12;;;;;;;8.25;2.97;;;;;;;42.04;23.39;100714.56;5085362;28;20063;-62
2022/07/30 01:14:39;;;;;;;6.65;2.10;;;;;;;41.70;23.64;100718.66;5082901;28;20470;-62
2022/07/30 01:17:06;;;;;;;9.50;2.30;;;;;;;42.54;23.09;100710.00;5082245;28;20036;-62
2022/07/30 01:19:47;;;;;;;7.25;1.95;;;;;;;42.45;23.33;100713.69;5084048;28;20061;-62
2022/07/30 01:22:28;;;;;;;12.93;2.60;;;;;;;42.09;21.99;100711.84;5082845;28;20036;-61
2022/07/30 01:24:57;;;;;;;9.32;2.28;;;;;;;42.07;22.15;100714.41;5078550;28;20860;-62
2022/07/30 01:27:27;;;;;;;4.70;1.80;;;;;;;41.05;23.35;100718.72;5078186;28;20070;-61
2022/07/30 01:29:55;;;;;;;8.50;2.10;;;;;;;40.76;23.63;100710.63;5076876;28;20028;-61
2022/07/30 01:32:24;;;;;;;8.75;1.92;;;;;;;40.61;23.51;100714.56;5065901;28;20024;-60
2022/07/30 01:34:55;;;;;;;10.75;2.00;;;;;;;40.45;23.36;100713.59;5072667;28;20394;-60
2022/07/30 01:37:23;;;;;;;10.48;2.05;;;;;;;40.95;23.03;100711.44;5070488;28;20505;-61
2022/07/30 01:39:51;;;;;;;12.18;2.00;;;;;;;40.20;22.52;100725.19;5079845;28;20035;-61
2022/07/30 01:42:20;;;;;;;8.52;2.05;;;;;;;40.57;22.30;100713.91;5075640;28;20053;-60
2022/07/30 01:44:48;;;;;;;7.05;1.90;;;;;;;40.76;21.79;100713.47;5075875;28;20029;-60
2022/07/30 01:47:17;;;;;;;10.82;2.10;;;;;;;39.99;22.28;100726.06;5080814;28;20032;-60
2022/07/30 01:49:47;;;;;;;5.80;1.80;;;;;;;39.43;22.92;100726.97;5075468;28;20112;-60
2022/07/30 01:52:16;;;;;;;7.95;2.05;;;;;;;39.12;23.21;100727.69;5082323;28;20024;-61
2022/07/30 01:54:45;;;;;;;9.05;2.08;;;;;;;39.47;22.79;100716.25;5084188;28;20475;-61
2022/07/30 01:57:14;;;;;;;8.55;2.00;;;;;;;39.29;22.07;100720.56;5064051;28;20043;-61
2022/07/30 01:59:44;;;;;;;8.82;1.95;;;;;;;39.11;22.63;100723.28;5072513;28;20021;-61
2022/07/30 02:02:11;;;;;;;8.45;1.67;;;;;;;38.53;22.42;100722.84;5076726;28;20030;-61
2022/07/30 02:04:38;;;;;;;6.60;2.00;;;;;;;38.48;22.32;100718.56;5065135;28;20048;-61
2022/07/30 02:07:23;;;;;;;7.85;2.00;;;;;;;37.96;22.53;100738.88;5074464;28;20021;-60
2022/07/30 02:09:58;;;;;;;8.73;2.03;;;;;;;37.87;22.94;100735.91;5085466;28;20044;-61
2022/07/30 02:12:29;;;;;;;16.48;2.10;;;;;;;37.96;22.62;100734.00;5084181;28;20037;-61
2022/07/30 02:15:14;;;;;;;15.65;2.53;;;;;;;37.95;22.62;100746.59;5074077;28;20131;-61
2022/07/30 02:17:49;;;;;;;12.80;2.50;;;;;;;38.07;22.55;100748.66;5073815;28;20493;-61
2022/07/30 02:20:16;;;;;;;9.70;2.17;;;;;;;38.14;21.79;100739.13;5098378;28;20079;-61
2022/07/30 02:22:46;;;;;;;8.07;1.90;;;;;;;37.91;22.13;100750.81;5090039;28;20020;-61
2022/07/30 02:25:20;;;;;;;8.05;1.83;;;;;;;37.69;21.80;100747.78;5080931;28;20119;-61
2022/07/30 02:27:57;;;;;;;11.00;1.95;;;;;;;37.29;21.94;100736.78;5087438;28;20422;-61
2022/07/30 02:30:26;;;;;;;7.50;1.67;;;;;;;37.32;21.88;100757.78;5098181;28;20067;-61
2022/07/30 02:32:59;;;;;;;11.23;1.80;;;;;;;37.13;21.86;100751.78;5081253;28;20059;-61
2022/07/30 02:35:28;;;;;;;10.18;1.80;;;;;;;36.95;21.75;100753.50;5084129;28;20036;-60
2022/07/30 02:37:56;;;;;;;11.63;1.77;;;;;;;36.86;21.90;100754.94;5079065;28;20028;-61
2022/07/30 02:40:25;;;;;;;15.27;1.98;;;;;;;36.77;21.79;100760.41;5083563;28;20115;-60
2022/07/30 02:42:53;;;;;;;13.63;1.92;;;;;;;36.45;21.75;100758.41;5085534;28;20024;-60
2022/07/30 02:45:24;;;;;;;11.43;1.80;;;;;;;36.26;22.17;100762.84;5083125;28;20441;-60
2022/07/30 02:47:59;;;;;;;19.42;2.33;;;;;;;36.18;21.88;100758.59;5079195;28;20090;-61
2022/07/30 02:50:27;;;;;;;13.50;2.05;;;;;;;36.07;22.73;100760.88;5084349;28;20505;-60
2022/07/30 02:52:57;;;;;;;17.33;2.35;;;;;;;35.97;23.06;100764.75;5077193;28;20033;-61
2022/07/30 02:55:26;;;;;;;8.93;1.90;;;;;;;35.70;23.00;100747.94;5077411;28;20438;-61
2022/07/30 02:57:54;;;;;;;13.82;1.98;;;;;;;35.69;22.64;100758.44;5077155;28;20062;-61
2022/07/30 03:00:23;;;;;;;51.53;4.05;;;;;;;35.66;23.20;100767.03;5077974;28;20048;-61
2022/07/30 03:02:52;;;;;;;7.68;1.98;;;;;;;35.59;23.10;100770.00;5081515;28;20024;-61
2022/07/30 03:05:19;;;;;;;11.05;2.10;;;;;;;35.53;23.35;100766.06;5080348;28;20085;-60
2022/07/30 03:07:47;;;;;;;21.65;2.53;;;;;;;35.36;24.23;100770.84;5078751;28;20036;-60
2022/07/30 03:10:15;;;;;;;14.50;3.00;;;;;;;35.31;24.13;100774.16;5100533;28;20387;-61
2022/07/30 03:12:45;;;;;;;17.02;2.20;;;;;;;35.25;25.25;100767.44;5093335;28;20039;-61
2022/07/30 03:15:13;;;;;;;20.45;3.20;;;;;;;35.13;28.10;100772.47;5084373;28;20052;-61
2022/07/30 03:17:49;;;;;;;12.10;2.65;;;;;;;35.05;26.13;100773.06;5085365;28;20043;-60
2022/07/30 03:20:20;;;;;;;18.27;2.78;;;;;;;35.00;26.93;100790.47;5084093;28;20048;-61
2022/07/30 03:22:52;;;;;;;18.50;2.80;;;;;;;34.94;26.23;100787.34;5085006;28;20041;-61
2022/07/30 03:25:23;;;;;;;14.90;2.30;;;;;;;34.89;26.24;100785.03;5084616;28;20059;-61
2022/07/30 03:27:58;;;;;;;16.27;2.40;;;;;;;34.79;26.93;100785.97;5085527;28;20478;-61
2022/07/30 03:30:27;;;;;;;13.48;2.80;;;;;;;34.72;26.75;100794.56;5082239;28;20036;-61
2022/07/30 03:32:55;;;;;;;22.00;3.17;;;;;;;34.67;27.28;100786.59;5085940;28;20528;-61
2022/07/30 03:35:25;;;;;;;16.35;2.58;;;;;;;34.65;27.06;100791.84;5081957;28;20036;-61
2022/07/30 03:37:55;;;;;;;18.92;2.33;;;;;;;34.61;27.18;100791.91;5083264;28;20028;-61
2022/07/30 03:40:23;;;;;;;12.65;2.25;;;;;;;34.62;27.15;100801.19;5077342;28;20093;-61
2022/07/30 03:42:50;;;;;;;13.48;2.17;;;;;;;34.58;27.20;100795.59;5069866;28;20475;-60
2022/07/30 03:45:21;;;;;;;14.43;2.20;;;;;;;34.52;27.02;100795.28;5089664;28;20129;-61
2022/07/30 03:47:51;;;;;;;13.48;2.65;;;;;;;34.50;27.86;100803.41;5082501;28;20036;-60
2022/07/30 03:50:17;;;;;;;14.68;2.00;;;;;;;34.36;27.92;100802.81;5081790;28;20020;-61
2022/07/30 03:52:46;;;;;;;11.85;1.95;;;;;;;34.31;27.41;100806.09;5082669;28;20500;-61
2022/07/30 03:55:16;;;;;;;17.13;2.20;;;;;;;34.20;27.95;100817.53;5082096;28;20103;-61
2022/07/30 03:57:49;;;;;;;10.77;1.95;;;;;;;34.28;26.89;100821.81;5083603;28;20515;-61
2022/07/30 04:00:19;;;;;;;12.38;2.30;;;;;;;34.19;27.42;100821.56;5081318;28;20032;-60
2022/07/30 04:02:51;;;;;;;11.93;2.35;;;;;;;34.12;27.62;100814.00;5083765;28;20059;-60
2022/07/30 04:05:27;;;;;;;16.60;3.20;;;;;;;34.11;27.56;100825.69;5085142;28;20124;-60
2022/07/30 04:07:58;;;;;;;9.43;2.78;;;;;;;34.12;27.37;100822.47;5079699;28;20037;-61
2022/07/30 04:10:26;;;;;;;15.05;3.03;;;;;;;34.06;27.53;100826.16;5081945;28;20047;-61
2022/07/30 04:13:12;;;;;;;14.77;2.95;;;;;;;34.05;27.30;100827.41;5084109;28;20029;-61
2022/07/30 04:16:13;;;;;;;22.83;2.85;;;;;;;33.94;27.43;100834.00;5084633;28;20040;-61
2022/07/30 04:18:46;;;;;;;15.00;2.75;;;;;;;33.92;27.69;100836.41;5074067;28;20122;-60
2022/07/30 04:21:16;;;;;;;23.23;3.08;;;;;;;33.82;27.58;100836.53;5081610;28;20036;-61
2022/07/30 04:23:46;;;;;;;10.75;2.63;;;;;;;33.74;27.38;100838.63;5082190;28;20379;-61
2022/07/30 04:26:14;;;;;;;17.90;2.88;;;;;;;33.74;27.26;100841.44;5083607;28;20058;-61
2022/07/30 04:28:41;;;;;;;34.83;3.03;;;;;;;33.66;27.35;100837.13;5081988;28;20029;-61
2022/07/30 04:31:07;;;;;;;28.20;3.05;;;;;;;33.66;27.07;100845.56;5081768;28;20028;-61
2022/07/30 04:33:34;;;;;;;10.05;2.50;;;;;;;33.57;27.31;100853.72;5083359;28;20078;-61
2022/07/30 04:36:17;;;;;;;14.50;2.80;;;;;;;33.46;28.15;100853.03;5083227;28;20028;-61
2022/07/30 04:38:45;;;;;;;15.63;2.85;;;;;;;33.35;27.57;100847.50;5080643;28;20036;-61
2022/07/30 04:41:12;;;;;;;8.52;1.95;;;;;;;33.26;27.85;100855.63;5082826;28;20060;-60
2022/07/30 04:43:58;;;;;;;12.98;2.10;;;;;;;33.32;28.05;100860.41;5074656;28;20044;-61
2022/07/30 04:46:26;;;;;;;9.57;2.05;;;;;;;33.22;28.18;100866.13;5081943;28;20032;-60
2022/07/30 04:48:53;;;;;;;10.75;2.00;;;;;;;33.17;28.91;100878.63;5082806;28;20532;-61
2022/07/30 04:51:27;;;;;;;9.73;1.98;;;;;;;33.17;29.25;100870.19;5081627;28;20029;-61
2022/07/30 04:53:56;;;;;;;9.77;2.60;;;;;;;33.10;29.26;100884.34;5078498;28;20082;-60
2022/07/30 04:56:24;;;;;;;8.93;2.25;;;;;;;33.00;29.77;100877.56;5092498;28;20039;-60
2022/07/30 04:58:53;;;;;;;9.10;2.40;;;;;;;32.95;29.73;100885.66;5099318;28;20110;-60
2022/07/30 05:01:26;;;;;;;13.07;2.60;;;;;;;32.94;31.12;100881.25;5084010;28;20093;-59
2022/07/30 05:03:53;;;;;;;10.60;2.55;;;;;;;32.83;32.04;100877.69;5080548;28;20035;-60
2022/07/30 05:06:21;;;;;;;9.98;2.78;;;;;;;32.79;32.38;100883.34;5085475;28;20024;-62
2022/07/30 05:08:48;;;;;;;8.63;2.40;;;;;;;32.76;32.75;100890.59;5080701;28;20102;-60
2022/07/30 05:11:15;;;;;;;5.55;2.15;;;;;;;32.65;33.07;100891.88;5088335;28;20137;-60
2022/07/30 05:13:44;;;;;;;6.43;2.10;;;;;;;32.70;32.99;100883.81;5092221;28;20416;-61
2022/07/30 05:16:14;;;;;;;10.05;2.65;;;;;;;32.65;33.29;100891.88;5059933;28;20443;-60
2022/07/30 05:18:41;;;;;;;11.98;2.60;;;;;;;32.70;33.09;100900.69;5079091;28;20020;-61
2022/07/30 05:21:09;;;;;;;20.00;2.55;;;;;;;32.61;33.20;100889.09;5089629;28;20040;-59
2022/07/30 05:23:42;;;;;;;11.90;2.40;;;;;;;32.58;33.24;100894.75;5077854;28;20024;-60
2022/07/30 05:26:24;;;;;;;9.68;2.30;;;;;;;32.60;34.07;100895.94;5085024;28;20032;-60
2022/07/30 05:28:53;;;;;;;12.10;2.20;;;;;;;32.61;34.57;100899.53;5084297;28;20040;-62
2022/07/30 05:31:25;;;;;;;23.67;3.13;;;;;;;32.54;34.35;100893.97;5077167;28;20025;-61
2022/07/30 05:33:57;;;;;;;10.55;1.98;;;;;;;32.43;34.15;100894.81;5077396;28;20043;-61
2022/07/30 05:36:26;;;;;;;10.18;2.10;;;;;;;32.35;34.66;100881.22;5075930;28;20028;-62
2022/07/30 05:38:53;;;;;;;10.15;2.13;;;;;;;32.31;33.67;100892.44;5074756;28;20075;-61
2022/07/30 05:41:29;;;;;;;8.48;2.00;;;;;;;32.28;33.47;100892.47;5075621;28;20046;-62
2022/07/30 05:44:06;;;;;;;7.20;1.70;;;;;;;32.26;33.56;100889.25;5072462;28;20044;-61
2022/07/30 05:46:33;;;;;;;8.75;1.80;;;;;;;32.12;34.10;100896.53;5072186;28;20024;-60
2022/07/30 05:49:00;;;;;;;7.90;2.10;;;;;;;32.04;35.02;100900.59;5070631;28;20025;-61
2022/07/30 05:51:28;;;;;;;7.70;2.03;;;;;;;32.17;34.06;100903.75;5072071;28;20059;-60
2022/07/30 05:53:55;;;;;;;5.55;1.80;;;;;;;32.15;34.63;100895.75;5069666;28;20033;-60
2022/07/30 05:56:39;;;;;;;6.32;1.90;;;;;;;32.08;34.15;100901.38;5070765;28;20490;-60
2022/07/30 05:59:14;;;;;;;15.57;2.83;;;;;;;32.10;34.25;100898.16;5068084;28;20123;-62
2022/07/30 06:02:00;;;;;;;8.70;2.10;;;;;;;32.03;34.09;100899.00;5068283;28;20040;-63
2022/07/30 06:04:35;;;;;;;5.63;2.13;;;;;;;31.97;33.57;100902.63;5072523;28;20031;-62
2022/07/30 06:07:04;;;;;;;9.27;2.05;;;;;;;31.95;33.33;100908.63;5080088;28;20029;-62
2022/07/30 06:09:32;;;;;;;12.05;2.30;;;;;;;31.86;33.17;100899.84;5085340;28;20181;-62
2022/07/30 06:11:59;;;;;;;9.35;1.90;;;;;;;31.76;34.36;100911.91;5091061;28;20033;-63
2022/07/30 06:14:25;;;;;;;14.35;2.38;;;;;;;31.77;34.04;100916.31;5086403;28;20091;-61
2022/07/30 06:16:53;;;;;;;6.50;1.65;;;;;;;31.72;34.13;100897.88;5087336;28;20094;-61
2022/07/30 06:19:20;;;;;;;13.77;2.25;;;;;;;31.81;34.14;100919.94;5077844;28;20106;-62
2022/07/30 06:21:48;;;;;;;9.85;2.00;;;;;;;31.85;33.33;100920.72;5070630;28;20456;-63
2022/07/30 06:24:16;;;;;;;3.72;1.80;;;;;;;31.88;33.42;100919.91;5071076;28;20028;-60
2022/07/30 06:26:47;;;;;;;8.38;2.15;;;;;;;31.83;33.36;100926.75;5055526;28;20032;-63
2022/07/30 06:29:14;;;;;;;12.35;2.17;;;;;;;31.77;32.54;100922.75;5074870;28;20474;-62
2022/07/30 06:31:41;;;;;;;8.50;1.90;;;;;;;31.89;32.06;100915.91;5074913;28;20020;-62
2022/07/30 06:34:11;;;;;;;12.88;2.10;;;;;;;32.01;31.75;100923.91;5075635;28;20039;-62
2022/07/30 06:36:41;;;;;;;7.80;1.83;;;;;;;32.04;30.76;100914.66;5074243;28;20044;-62
2022/07/30 06:39:33;;;;;;;8.98;1.80;;;;;;;32.08;30.40;100917.44;5071224;28;20162;-62
2022/07/30 06:42:18;;;;;;;5.97;1.67;;;;;;;32.01;31.26;100915.47;5075927;28;20083;-62
2022/07/30 06:45:09;;;;;;;11.43;1.77;;;;;;;32.06;30.69;100914.25;5074473;28;20044;-62
2022/07/30 06:48:05;;;;;;;7.57;1.90;;;;;;;31.96;31.46;100921.53;5058380;28;20041;-61
2022/07/30 06:50:32;;;;;;;6.28;1.77;;;;;;;31.92;31.96;100917.88;5075441;28;20032;-61
2022/07/30 06:52:59;;;;;;;11.07;2.42;;;;;;;31.95;31.62;100913.47;5071550;28;20020;-61
2022/07/30 06:55:36;;;;;;;6.07;1.83;;;;;;;31.89;32.44;100927.16;5059078;28;20102;-61
2022/07/30 06:58:03;;;;;;;7.85;1.67;;;;;;;31.94;32.36;100917.47;5075211;28;20032;-61
2022/07/30 07:00:49;;;;;;;8.95;2.00;;;;;;;31.94;31.97;100923.91;5073850;28;20468;-61
2022/07/30 07:03:17;;;;;;;7.20;1.65;;;;;;;31.95;32.01;100919.09;5074225;28;20032;-62
2022/07/30 07:05:43;;;;;;;6.20;1.70;;;;;;;31.97;31.75;100925.94;5074187;28;20477;-62
2022/07/30 07:08:10;;;;;;;10.13;2.00;;;;;;;31.95;32.06;100919.88;5074406;28;20486;-62
2022/07/30 07:10:43;;;;;;;8.27;1.80;;;;;;;31.91;32.28;100921.13;5081458;28;20073;-62
2022/07/30 07:13:24;;;;;;;9.13;1.95;;;;;;;31.91;32.79;100923.91;5097287;28;20510;-63
2022/07/30 07:15:51;;;;;;;5.97;1.52;;;;;;;31.79;32.83;100919.56;5068921;28;20036;-62
2022/07/30 07:18:20;;;;;;;8.68;1.85;;;;;;;31.88;32.90;100922.72;5087755;28;20093;-62
2022/07/30 07:20:53;;;;;;;7.13;1.80;;;;;;;31.70;33.60;100924.75;5084263;28;20036;-62
2022/07/30 07:23:20;;;;;;;6.43;2.13;;;;;;;31.61;33.66;100913.13;5085984;28;20051;-62
2022/07/30 07:25:51;;;;;;;8.45;1.92;;;;;;;31.62;33.27;100914.75;5076961;28;20382;-62
2022/07/30 07:28:18;;;;;;;7.90;1.55;;;;;;;31.56;33.96;100909.50;5089292;28;20082;-62
2022/07/30 07:30:45;;;;;;;7.18;1.80;;;;;;;31.48;34.26;100907.13;5079902;28;20024;-63
2022/07/30 07:33:13;;;;;;;13.18;2.25;;;;;;;31.45;35.03;100919.97;5074114;28;20115;-62
2022/07/30 07:35:40;;;;;;;9.20;2.10;;;;;;;31.37;35.78;100923.19;5078042;28;20063;-62
2022/07/30 07:38:07;;;;;;;8.63;1.73;;;;;;;31.25;35.78;100927.22;5086849;28;21229;-63
2022/07/30 07:40:34;;;;;;;9.15;2.30;;;;;;;31.29;36.26;100928.00;5086833;28;20025;-62
2022/07/30 07:43:01;;;;;;;9.68;1.83;;;;;;;31.21;36.42;100932.00;5066466;28;20032;-62
2022/07/30 07:45:28;;;;;;;12.32;2.10;;;;;;;31.16;36.39;100929.56;5079424;28;20021;-62
2022/07/30 07:48:01;;;;;;;9.48;2.10;;;;;;;31.11;36.48;100915.94;5089550;28;20043;-62
2022/07/30 07:50:44;;;;;;;8.43;1.73;;;;;;;31.02;37.18;100924.75;5080897;28;20043;-62
2022/07/30 07:53:18;;;;;;;6.70;1.95;;;;;;;31.05;36.92;100939.97;5080718;28;20082;-62
2022/07/30 07:55:45;;;;;;;9.07;1.73;;;;;;;30.98;36.73;100930.34;5089791;28;20486;-62
2022/07/30 07:58:13;;;;;;;6.35;1.88;;;;;;;30.98;36.39;100926.75;5074903;28;20463;-62
2022/07/30 08:00:40;;;;;;;5.75;1.50;;;;;;;30.89;36.54;100926.34;5086408;28;20506;-62
2022/07/30 08:03:07;;;;;;;7.13;1.58;;;;;;;30.70;36.42;100916.25;5084452;28;20032;-62
2022/07/30 08:05:35;;;;;;;7.18;1.70;;;;;;;30.82;35.69;100929.13;5065664;28;20025;-62
2022/07/30 08:08:15;;;;;;;7.68;1.58;;;;;;;30.81;35.37;100936.75;5074729;28;20044;-63
2022/07/30 08:11:00;;;;;;;15.18;1.88;;;;;;;30.71;35.88;100929.13;5084239;28;20525;-62
2022/07/30 08:13:52;;;;;;;10.40;1.88;;;;;;;30.87;35.42;100934.34;5089194;28;20040;-62
2022/07/30 08:16:37;;;;;;;4.68;1.60;;;;;;;30.73;35.48;100937.13;5080714;28;20043;-63
2022/07/30 08:19:27;;;;;;;24.80;2.40;;;;;;;30.68;35.91;100943.91;5060153;28;20030;-62
2022/07/30 08:22:07;;;;;;;15.45;2.38;;;;;;;30.54;37.43;100941.06;5089182;28;20047;-62
2022/07/30 08:24:34;;;;;;;8.88;2.20;;;;;;;30.43;37.87;100938.22;5078812;28;20081;-63
2022/07/30 08:27:00;;;;;;;8.23;2.20;;;;;;;30.34;38.64;100943.38;5082645;28;20478;-63
2022/07/30 08:29:28;;;;;;;3.88;1.85;;;;;;;30.24;39.26;100939.34;5069191;28;20390;-63
2022/07/30 08:31:55;;;;;;;9.00;2.22;;;;;;;30.16;39.57;100940.47;5076357;28;20032;-60
2022/07/30 08:34:24;;;;;;;9.70;2.08;;;;;;;30.15;39.45;100944.47;5086964;28;20036;-63
2022/07/30 08:36:51;;;;;;;9.35;2.30;;;;;;;30.17;39.56;100958.13;5077958;28;20094;-63
2022/07/30 08:39:18;;;;;;;8.25;2.50;;;;;;;30.18;39.84;100954.13;5084932;28;20036;-63
2022/07/30 08:41:45;;;;;;;7.35;2.20;;;;;;;30.08;39.28;100955.66;5075953;28;20028;-63
2022/07/30 08:44:12;;;;;;;6.40;2.03;;;;;;;30.06;39.36;100956.06;5105734;28;20402;-62
2022/07/30 08:46:43;;;;;;;7.68;1.77;;;;;;;30.12;39.66;100962.09;5079322;28;20020;-63
2022/07/30 08:49:28;;;;;;;9.30;2.22;;;;;;;30.17;39.88;100967.34;5079418;28;20513;-63
2022/07/30 08:51:55;;;;;;;6.25;2.00;;;;;;;30.25;40.20;100971.78;5088542;28;20043;-62
2022/07/30 08:54:55;;;;;;;13.18;2.65;;;;;;;30.21;41.24;100965.34;5072116;28;20404;-63
2022/07/30 08:57:22;;;;;;;11.38;2.10;;;;;;;30.17;41.62;100960.94;5079024;28;20063;-63
2022/07/30 08:59:50;;;;;;;5.22;1.90;;;;;;;30.06;41.59;100956.06;5088351;28;20043;-63
2022/07/30 09:02:17;;;;;;;7.35;2.10;;;;;;;30.05;42.46;100956.47;5076996;28;20584;-63
2022/07/30 09:04:58;;;;;;;11.18;2.38;;;;;;;30.03;43.00;100956.03;5081919;28;20498;-64
2022/07/30 09:07:25;;;;;;;10.45;2.45;;;;;;;30.06;43.05;100963.66;5077421;28;20093;-63
2022/07/30 09:09:51;;;;;;;9.18;2.22;;;;;;;30.04;43.71;100969.66;5088052;28;20135;-63
2022/07/30 09:12:38;;;;;;;10.00;2.22;;;;;;;29.98;44.88;100964.78;5075764;28;20085;-63
2022/07/30 09:15:19;;;;;;;7.38;2.25;;;;;;;29.97;45.45;100965.97;5080723;28;20086;-63
2022/07/30 09:17:45;;;;;;;8.20;2.40;;;;;;;29.92;47.09;100975.56;5104818;28;20035;-62
2022/07/30 09:20:12;;;;;;;9.70;2.30;;;;;;;29.84;47.82;100970.31;5074795;28;20024;-63
2022/07/30 09:22:55;;;;;;;6.25;2.45;;;;;;;29.80;48.26;100973.06;5083921;28;20069;-63
2022/07/30 09:25:59;;;;;;;7.80;2.30;;;;;;;29.79;48.90;100971.47;5089132;28;20069;-64
2022/07/30 09:28:44;;;;;;;6.90;2.53;;;;;;;29.82;49.12;100961.50;5080662;28;20043;-64
2022/07/30 09:31:15;;;;;;;6.85;2.65;;;;;;;29.74;50.24;100974.63;5080668;28;20039;-64
2022/07/30 09:34:00;;;;;;;8.65;2.70;;;;;;;29.70;50.75;100973.81;5089419;28;20540;-64
2022/07/30 09:36:45;;;;;;;;;;;;;;;29.64;51.10;100969.78;5078700;28;20109;-64
2022/07/30 09:39:36;;;;;;;8.50;2.80;;;;;;;29.57;51.71;100976.09;5086875;28;19977;-64
2022/07/30 09:42:24;;;;;;;8.23;3.00;;;;;;;29.57;52.03;100972.50;5061854;28;20047;-64
2022/07/30 09:45:09;;;;;;;8.32;2.40;;;;;;;29.47;52.84;100972.03;5082011;28;20036;-63
2022/07/30 09:47:41;;;;;;;9.32;2.38;;;;;;;29.47;52.82;100965.63;5086229;28;20038;-62
2022/07/30 09:50:12;;;;;;;9.65;2.42;;;;;;;29.44;52.87;100961.59;5075833;28;20429;-63
2022/07/30 09:52:44;;;;;;;9.30;2.90;;;;;;;29.36;53.44;100954.31;5100975;28;20060;-63
2022/07/30 09:55:14;;;;;;;6.70;2.55;;;;;;;29.40;53.40;100959.94;5082704;28;20500;-63
2022/07/30 09:58:01;;;;;;;9.25;2.80;;;;;;;29.41;53.82;100958.75;5075345;28;20035;-62
2022/07/30 10:00:30;;;;;;;12.27;2.75;;;;;;;29.37;54.21;100955.13;5062029;28;20031;-63
2022/07/30 10:03:18;;;;;;;11.93;2.60;;;;;;;29.38;54.20;100953.91;5082464;28;20041;-62
2022/07/30 10:06:03;;;;;;;7.00;2.50;;;;;;;29.32;54.28;100958.28;5078269;28;20113;-63
2022/07/30 10:08:50;;;;;;;8.30;2.40;;;;;;;29.36;54.42;100959.09;5083701;28;20119;-63
2022/07/30 10:11:23;;;;;;;6.22;2.30;;;;;;;29.38;54.71;100951.13;5086279;28;20082;-63
2022/07/30 10:13:56;;;;;;;14.20;2.65;;;;;;;29.35;54.52;100941.50;5085051;28;20151;-62
2022/07/30 10:16:27;;;;;;;6.35;2.25;;;;;;;29.35;54.59;100941.50;5089467;28;20067;-63
2022/07/30 10:18:58;;;;;;;22.38;3.42;;;;;;;29.38;54.12;100951.13;5074541;28;20115;-62
2022/07/30 10:21:45;;;;;;;10.00;2.60;;;;;;;29.40;54.38;100945.94;5060543;28;20456;-63
2022/07/30 10:24:19;;;;;;;7.18;2.20;;;;;;;29.39;54.69;100952.72;5076220;28;20560;-62
2022/07/30 10:27:12;;;;;;;6.35;2.05;;;;;;;29.39;55.03;100947.13;5087636;28;20048;-62
2022/07/30 10:29:48;;;;;;;7.30;2.30;;;;;;;29.30;54.58;100946.66;5078272;28;20064;-63
2022/07/30 10:32:15;;;;;;;8.68;2.40;;;;;;;29.31;54.90;100957.47;5063501;28;20036;-63
2022/07/30 10:34:42;;;;;;;9.77;2.13;;;;;;;29.31;54.82;100959.47;5088339;28;20016;-63
2022/07/30 10:37:11;;;;;;;9.30;2.60;;;;;;;29.30;55.13;100960.66;5080546;28;20514;-63
2022/07/30 10:40:01;;;;;;;10.13;2.60;;;;;;;29.30;55.19;100955.06;5091038;28;20087;-63
2022/07/30 10:42:36;;;;;;;9.95;2.40;;;;;;;29.36;55.37;100948.72;5066596;28;20028;-64
2022/07/30 10:45:21;;;;;;;9.00;2.40;;;;;;;29.36;55.10;100951.50;5085320;28;20043;-63
2022/07/30 10:47:50;;;;;;;9.68;2.58;;;;;;;29.32;56.26;100942.28;5091165;28;20119;-63
2022/07/30 10:50:21;;;;;;;7.53;2.55;;;;;;;29.27;56.77;100945.44;5079388;28;20413;-63
2022/07/30 10:52:53;;;;;;;10.10;2.30;;;;;;;29.24;57.62;100946.19;5087132;28;20024;-63
2022/07/30 10:55:23;;;;;;;6.68;2.65;;;;;;;29.21;58.06;100948.97;5088358;28;20107;-63
2022/07/30 10:58:03;;;;;;;9.27;2.65;;;;;;;29.18;57.77;100947.75;5078228;28;20052;-64
2022/07/30 11:00:32;;;;;;;7.55;2.13;;;;;;;29.15;58.44;100954.13;5081246;28;20028;-63
2022/07/30 11:03:15;;;;;;;11.40;2.60;;;;;;;29.16;58.17;100945.34;5085199;28;20030;-64
2022/07/30 11:05:44;;;;;;;8.13;2.25;;;;;;;29.15;58.44;100954.94;5091214;28;20032;-64
2022/07/30 11:08:33;;;;;;;11.48;2.50;;;;;;;29.11;59.50;100959.69;5078299;28;20482;-64
2022/07/30 11:11:00;;;;;;;9.57;3.17;;;;;;;29.07;59.82;100956.03;5085138;28;20037;-62
2022/07/30 11:13:53;;;;;;;8.20;3.00;;;;;;;29.04;60.18;100954.00;5088463;28;20032;-62
2022/07/30 11:16:44;;;;;;;7.45;2.75;;;;;;;28.97;60.71;100953.16;5063956;28;20032;-64
2022/07/30 11:19:16;;;;;;;9.13;2.72;;;;;;;28.95;61.00;100967.53;5083372;28;20040;-64
2022/07/30 11:21:49;;;;;;;7.53;2.67;;;;;;;28.90;61.74;100948.25;5090866;28;20043;-64
2022/07/30 11:24:44;;;;;;;9.95;3.28;;;;;;;28.88;61.86;100957.03;5077313;28;20035;-64
2022/07/30 11:27:40;;;;;;;;;;;;;;;28.87;62.28;100960.22;5083814;28;20116;-64
2022/07/30 11:30:16;;;;;;;10.70;2.97;;;;;;;28.82;63.64;100963.34;5068424;28;19970;-63
2022/07/30 11:32:44;;;;;;;7.93;3.65;;;;;;;28.77;63.05;100969.28;5087141;28;20094;-62
2022/07/30 11:35:24;;;;;;;10.80;5.10;;;;;;;28.83;62.90;100970.56;5086267;28;20064;-62
2022/07/30 11:37:56;;;;;;;11.50;5.10;;;;;;;28.84;62.87;100972.16;5078009;28;20028;-63
2022/07/30 11:40:24;;;;;;;8.50;3.95;;;;;;;28.72;63.00;100964.81;5089728;28;20028;-63
2022/07/30 11:43:11;;;;;;;15.82;3.80;;;;;;;28.72;63.66;100975.22;5083170;28;20478;-63
2022/07/30 11:45:38;;;;;;;18.60;4.10;;;;;;;28.72;63.55;100980.81;5079348;28;20037;-63